Hurst, Texas
Current Conditions -  °F | °C
As of 12:53 AM on Saturday 20 Dec 2014 (Local Time) from KDFW Reporting Station
Overcast Overcast  
Wind Chill: 42°   Ceiling: 1000
Heat Index: 46°   Visibility: 10mi
Dew Point: 42°   Wind: 7mph
Humidity: 86%   Direction: 360°N
Pressure: 30.2"   Gusts: NA
Location:  32.84°N, 97.19°W
Report Text: KDFW 200653Z 36006KT 10SM OVC010 08/06 A3020 RMK AO2 SLP225 T00780056
Loading
Personal Weather Stations






























Interactive Weather Map New forecast layout! Learn more

10-Day Weather Forecast

Advertisements
Track Severe Weather on mobile